sensor_id;sensor_type;location;lat;lon;timestamp;temperature;humidity
20315;DHT22;10315;50.958;13.080;2023-07-09T00:01:11;19.40;89.40
20315;DHT22;10315;50.958;13.080;2023-07-09T00:11:15;19.10;90.80
20315;DHT22;10315;50.958;13.080;2023-07-09T00:21:19;18.80;92.30
20315;DHT22;10315;50.958;13.080;2023-07-09T00:31:21;18.80;92.60
20315;DHT22;10315;50.958;13.080;2023-07-09T00:41:25;18.70;93.70
20315;DHT22;10315;50.958;13.080;2023-07-09T00:51:29;18.40;95.30
20315;DHT22;10315;50.958;13.080;2023-07-09T01:01:33;18.40;95.60
20315;DHT22;10315;50.958;13.080;2023-07-09T01:11:35;18.30;96.10
20315;DHT22;10315;50.958;13.080;2023-07-09T01:21:39;17.70;98.20
20315;DHT22;10315;50.958;13.080;2023-07-09T01:31:41;17.40;99.90
20315;DHT22;10315;50.958;13.080;2023-07-09T01:41:44;17.10;99.90
20315;DHT22;10315;50.958;13.080;2023-07-09T01:51:47;16.90;99.90
20315;DHT22;10315;50.958;13.080;2023-07-09T02:01:51;17.60;99.90
20315;DHT22;10315;50.958;13.080;2023-07-09T02:11:58;17.70;99.90
20315;DHT22;10315;50.958;13.080;2023-07-09T02:22:01;17.40;99.90
20315;DHT22;10315;50.958;13.080;2023-07-09T02:32:03;17.20;99.90
20315;DHT22;10315;50.958;13.080;2023-07-09T02:42:08;17.50;99.90
20315;DHT22;10315;50.958;13.080;2023-07-09T02:52:10;17.60;99.90
20315;DHT22;10315;50.958;13.080;2023-07-09T03:02:13;17.40;99.90
20315;DHT22;10315;50.958;13.080;2023-07-09T03:12:15;17.20;99.90
20315;DHT22;10315;50.958;13.080;2023-07-09T03:22:17;16.40;99.90
20315;DHT22;10315;50.958;13.080;2023-07-09T03:32:19;16.50;99.90
20315;DHT22;10315;50.958;13.080;2023-07-09T03:42:22;16.90;99.90
20315;DHT22;10315;50.958;13.080;2023-07-09T03:52:23;17.30;99.90
20315;DHT22;10315;50.958;13.080;2023-07-09T04:02:26;17.00;99.90
20315;DHT22;10315;50.958;13.080;2023-07-09T04:12:28;16.90;99.90
20315;DHT22;10315;50.958;13.080;2023-07-09T04:22:31;17.10;99.90
20315;DHT22;10315;50.958;13.080;2023-07-09T04:32:33;17.60;99.90
20315;DHT22;10315;50.958;13.080;2023-07-09T04:42:37;17.80;99.90
20315;DHT22;10315;50.958;13.080;2023-07-09T04:52:39;18.10;99.90
20315;DHT22;10315;50.958;13.080;2023-07-09T05:02:42;18.30;99.90
20315;DHT22;10315;50.958;13.080;2023-07-09T05:12:48;18.80;99.90
20315;DHT22;10315;50.958;13.080;2023-07-09T05:22:51;19.10;99.90
20315;DHT22;10315;50.958;13.080;2023-07-09T05:32:53;19.60;99.90
20315;DHT22;10315;50.958;13.080;2023-07-09T05:42:59;20.10;99.90
20315;DHT22;10315;50.958;13.080;2023-07-09T05:53:00;20.60;99.90
20315;DHT22;10315;50.958;13.080;2023-07-09T06:03:03;21.30;99.90
20315;DHT22;10315;50.958;13.080;2023-07-09T06:13:07;22.20;99.90
20315;DHT22;10315;50.958;13.080;2023-07-09T06:23:10;23.30;99.40
20315;DHT22;10315;50.958;13.080;2023-07-09T06:33:13;24.60;96.00
20315;DHT22;10315;50.958;13.080;2023-07-09T06:43:17;27.80;87.80
20315;DHT22;10315;50.958;13.080;2023-07-09T06:53:20;36.10;59.70
20315;DHT22;10315;50.958;13.080;2023-07-09T07:03:23;40.20;50.10
20315;DHT22;10315;50.958;13.080;2023-07-09T07:13:25;41.70;44.40
20315;DHT22;10315;50.958;13.080;2023-07-09T07:23:28;44.80;40.10
20315;DHT22;10315;50.958;13.080;2023-07-09T07:33:30;46.30;39.00
20315;DHT22;10315;50.958;13.080;2023-07-09T07:43:33;48.00;36.00
20315;DHT22;10315;50.958;13.080;2023-07-09T07:53:34;51.70;33.60
20315;DHT22;10315;50.958;13.080;2023-07-09T08:03:37;54.10;29.10
20315;DHT22;10315;50.958;13.080;2023-07-09T08:13:39;54.50;29.30
20315;DHT22;10315;50.958;13.080;2023-07-09T08:23:42;55.30;28.80
20315;DHT22;10315;50.958;13.080;2023-07-09T08:33:43;56.10;28.40
20315;DHT22;10315;50.958;13.080;2023-07-09T08:43:54;56.40;28.10
20315;DHT22;10315;50.958;13.080;2023-07-09T08:53:59;56.30;27.80
20315;DHT22;10315;50.958;13.080;2023-07-09T09:04:11;53.70;27.40
20315;DHT22;10315;50.958;13.080;2023-07-09T09:14:26;57.40;26.10
20315;DHT22;10315;50.958;13.080;2023-07-09T09:24:35;57.60;26.50
20315;DHT22;10315;50.958;13.080;2023-07-09T09:34:37;57.40;26.10
20315;DHT22;10315;50.958;13.080;2023-07-09T09:44:44;55.30;26.70
20315;DHT22;10315;50.958;13.080;2023-07-09T09:54:50;55.40;26.70
20315;DHT22;10315;50.958;13.080;2023-07-09T10:04:55;54.00;27.00
20315;DHT22;10315;50.958;13.080;2023-07-09T10:14:59;52.90;27.30
20315;DHT22;10315;50.958;13.080;2023-07-09T10:25:13;52.90;26.60
20315;DHT22;10315;50.958;13.080;2023-07-09T10:35:23;50.00;27.50
20315;DHT22;10315;50.958;13.080;2023-07-09T10:45:32;46.80;29.30
20315;DHT22;10315;50.958;13.080;2023-07-09T10:55:41;44.10;30.70
20315;DHT22;10315;50.958;13.080;2023-07-09T11:05:48;43.30;31.50
20315;DHT22;10315;50.958;13.080;2023-07-09T11:15:51;41.90;32.40
20315;DHT22;10315;50.958;13.080;2023-07-09T11:26:11;40.30;33.90
20315;DHT22;10315;50.958;13.080;2023-07-09T11:36:23;40.10;34.50
20315;DHT22;10315;50.958;13.080;2023-07-09T11:46:28;38.40;36.20
20315;DHT22;10315;50.958;13.080;2023-07-09T11:56:30;37.20;36.80
20315;DHT22;10315;50.958;13.080;2023-07-09T12:06:33;37.10;37.70
20315;DHT22;10315;50.958;13.080;2023-07-09T12:16:38;37.90;37.20
20315;DHT22;10315;50.958;13.080;2023-07-09T12:26:41;38.30;36.50
20315;DHT22;10315;50.958;13.080;2023-07-09T12:36:46;37.80;37.20
20315;DHT22;10315;50.958;13.080;2023-07-09T12:46:50;38.10;37.60
20315;DHT22;10315;50.958;13.080;2023-07-09T12:56:53;37.60;37.10
20315;DHT22;10315;50.958;13.080;2023-07-09T13:06:56;37.30;39.00
20315;DHT22;10315;50.958;13.080;2023-07-09T13:17:04;37.00;39.60
20315;DHT22;10315;50.958;13.080;2023-07-09T13:27:11;37.10;38.80
20315;DHT22;10315;50.958;13.080;2023-07-09T13:37:16;37.10;38.00
20315;DHT22;10315;50.958;13.080;2023-07-09T13:47:19;36.90;39.60
20315;DHT22;10315;50.958;13.080;2023-07-09T13:57:21;36.70;38.90
20315;DHT22;10315;50.958;13.080;2023-07-09T14:07:29;36.60;39.50
20315;DHT22;10315;50.958;13.080;2023-07-09T14:17:32;36.80;39.60
20315;DHT22;10315;50.958;13.080;2023-07-09T14:27:35;36.40;39.30
20315;DHT22;10315;50.958;13.080;2023-07-09T14:37:36;36.20;42.10
20315;DHT22;10315;50.958;13.080;2023-07-09T14:47:39;35.80;42.20
20315;DHT22;10315;50.958;13.080;2023-07-09T14:57:41;35.70;42.10
20315;DHT22;10315;50.958;13.080;2023-07-09T15:07:44;35.60;42.00
20315;DHT22;10315;50.958;13.080;2023-07-09T15:17:46;35.40;41.80
20315;DHT22;10315;50.958;13.080;2023-07-09T15:27:50;35.30;41.40
20315;DHT22;10315;50.958;13.080;2023-07-09T15:37:52;35.10;42.00
20315;DHT22;10315;50.958;13.080;2023-07-09T15:47:55;34.80;43.70
20315;DHT22;10315;50.958;13.080;2023-07-09T15:57:56;34.00;43.40
20315;DHT22;10315;50.958;13.080;2023-07-09T16:07:59;33.60;44.10
20315;DHT22;10315;50.958;13.080;2023-07-09T16:18:01;34.10;44.10
20315;DHT22;10315;50.958;13.080;2023-07-09T16:28:10;33.80;47.20
20315;DHT22;10315;50.958;13.080;2023-07-09T16:38:12;33.60;46.30
20315;DHT22;10315;50.958;13.080;2023-07-09T16:48:16;33.10;47.00
20315;DHT22;10315;50.958;13.080;2023-07-09T16:58:28;32.40;47.40
20315;DHT22;10315;50.958;13.080;2023-07-09T17:08:32;31.90;48.90
20315;DHT22;10315;50.958;13.080;2023-07-09T17:18:33;31.50;49.80
20315;DHT22;10315;50.958;13.080;2023-07-09T17:28:36;31.50;50.00
20315;DHT22;10315;50.958;13.080;2023-07-09T17:38:38;31.40;50.60
20315;DHT22;10315;50.958;13.080;2023-07-09T17:48:41;30.80;52.80
20315;DHT22;10315;50.958;13.080;2023-07-09T17:58:43;30.30;54.30
20315;DHT22;10315;50.958;13.080;2023-07-09T18:08:46;29.70;56.00
20315;DHT22;10315;50.958;13.080;2023-07-09T18:18:47;29.30;54.60
20315;DHT22;10315;50.958;13.080;2023-07-09T18:28:50;29.00;54.10
20315;DHT22;10315;50.958;13.080;2023-07-09T18:38:52;28.50;58.10
20315;DHT22;10315;50.958;13.080;2023-07-09T18:48:55;27.90;57.60
20315;DHT22;10315;50.958;13.080;2023-07-09T18:58:57;27.90;54.70
20315;DHT22;10315;50.958;13.080;2023-07-09T19:09:00;27.40;58.10
20315;DHT22;10315;50.958;13.080;2023-07-09T19:19:01;27.10;58.50
20315;DHT22;10315;50.958;13.080;2023-07-09T19:29:04;26.60;60.00
20315;DHT22;10315;50.958;13.080;2023-07-09T19:39:22;26.20;60.50
20315;DHT22;10315;50.958;13.080;2023-07-09T19:49:25;26.00;60.80
20315;DHT22;10315;50.958;13.080;2023-07-09T19:59:26;25.50;61.90
20315;DHT22;10315;50.958;13.080;2023-07-09T20:09:29;25.50;60.70
20315;DHT22;10315;50.958;13.080;2023-07-09T20:19:31;25.30;61.30
20315;DHT22;10315;50.958;13.080;2023-07-09T20:29:35;25.30;60.00
20315;DHT22;10315;50.958;13.080;2023-07-09T20:39:37;25.20;60.40
20315;DHT22;10315;50.958;13.080;2023-07-09T20:49:40;25.10;60.70
20315;DHT22;10315;50.958;13.080;2023-07-09T20:59:42;24.70;62.60
20315;DHT22;10315;50.958;13.080;2023-07-09T21:09:45;24.50;62.30
20315;DHT22;10315;50.958;13.080;2023-07-09T21:19:47;24.20;64.10
20315;DHT22;10315;50.958;13.080;2023-07-09T21:29:50;24.00;63.70
20315;DHT22;10315;50.958;13.080;2023-07-09T21:39:51;23.70;64.10
20315;DHT22;10315;50.958;13.080;2023-07-09T21:49:54;23.80;63.30
20315;DHT22;10315;50.958;13.080;2023-07-09T21:59:56;24.00;62.90
20315;DHT22;10315;50.958;13.080;2023-07-09T22:10:01;24.00;62.90
20315;DHT22;10315;50.958;13.080;2023-07-09T22:20:03;23.70;65.00
20315;DHT22;10315;50.958;13.080;2023-07-09T22:30:08;23.30;66.30
20315;DHT22;10315;50.958;13.080;2023-07-09T22:40:18;23.20;66.50
20315;DHT22;10315;50.958;13.080;2023-07-09T22:50:26;23.00;67.00
20315;DHT22;10315;50.958;13.080;2023-07-09T23:00:30;23.10;67.10
20315;DHT22;10315;50.958;13.080;2023-07-09T23:10:33;23.10;66.30
20315;DHT22;10315;50.958;13.080;2023-07-09T23:20:35;23.20;66.20
20315;DHT22;10315;50.958;13.080;2023-07-09T23:30:38;23.00;67.00
20315;DHT22;10315;50.958;13.080;2023-07-09T23:40:41;23.10;66.30
20315;DHT22;10315;50.958;13.080;2023-07-09T23:50:44;23.20;66.20
